createdAt,value
2023-03-05T00:01:34.470Z,7.38
2023-03-05T00:04:03.480Z,7.75
2023-03-05T00:06:32.570Z,6.97
2023-03-05T00:09:01.153Z,7.80
2023-03-05T00:11:31.513Z,7.38
2023-03-05T00:14:00.895Z,9.43
2023-03-05T00:16:30.051Z,9.38
2023-03-05T00:19:00.419Z,9.18
2023-03-05T00:21:29.650Z,9.50
2023-03-05T00:24:01.001Z,8.07
2023-03-05T00:26:30.311Z,7.43
2023-03-05T00:28:59.603Z,8.10
2023-03-05T00:31:30.365Z,8.50
2023-03-05T00:34:04.113Z,8.20
2023-03-05T00:36:32.731Z,7.40
2023-03-05T00:39:01.979Z,7.72
2023-03-05T00:41:30.573Z,7.43
2023-03-05T00:43:58.961Z,6.30
2023-03-05T00:46:27.970Z,7.70
2023-03-05T00:49:00.350Z,7.97
2023-03-05T00:51:29.013Z,6.15
2023-03-05T00:53:57.829Z,5.85
2023-03-05T00:56:26.371Z,7.10
2023-03-05T00:58:56.773Z,6.43
2023-03-05T01:01:26.541Z,7.57
2023-03-05T01:03:59.460Z,6.68
2023-03-05T01:06:31.998Z,7.25
2023-03-05T01:09:00.575Z,7.70
2023-03-05T01:11:29.417Z,8.73
2023-03-05T01:13:58.059Z,8.15
2023-03-05T01:16:26.771Z,8.70
2023-03-05T01:18:55.314Z,7.63
2023-03-05T01:21:23.918Z,6.72
2023-03-05T01:23:53.846Z,6.93
2023-03-05T01:26:22.411Z,5.50
2023-03-05T01:28:50.775Z,5.57
2023-03-05T01:31:19.293Z,4.90
2023-03-05T01:33:47.986Z,4.82
2023-03-05T01:36:17.400Z,5.10
2023-03-05T01:38:46.411Z,5.80
2023-03-05T01:41:17.556Z,4.65
2023-03-05T01:43:46.362Z,4.63
2023-03-05T01:46:35.437Z,5.60
2023-03-05T01:49:12.226Z,5.80
2023-03-05T01:51:43.517Z,5.63
2023-03-05T01:54:13.576Z,3.97
2023-03-05T01:56:43.679Z,3.50
2023-03-05T01:59:12.784Z,4.00
2023-03-05T02:01:42.873Z,3.75
2023-03-05T02:04:12.776Z,4.25
2023-03-05T02:06:42.906Z,3.70
2023-03-05T02:09:13.291Z,3.78
2023-03-05T02:11:43.225Z,3.58
2023-03-05T02:14:11.894Z,3.85
2023-03-05T02:16:41.090Z,2.90
2023-03-05T02:19:11.222Z,3.10
2023-03-05T02:21:42.080Z,4.35
2023-03-05T02:24:12.812Z,3.53
2023-03-05T02:26:43.060Z,3.20
2023-03-05T02:29:12.338Z,2.97
2023-03-05T02:31:40.897Z,4.50
2023-03-05T02:34:10.485Z,3.33
2023-03-05T02:36:39.015Z,3.30
2023-03-05T02:39:10.155Z,3.65
2023-03-05T02:41:38.947Z,4.38
2023-03-05T02:44:07.465Z,3.70
2023-03-05T02:46:36.695Z,4.38
2023-03-05T02:49:06.103Z,4.40
2023-03-05T02:51:34.789Z,3.72
2023-03-05T02:54:03.441Z,3.83
2023-03-05T02:56:33.406Z,3.05
2023-03-05T02:59:03.331Z,3.50
2023-03-05T03:01:31.971Z,4.75
2023-03-05T03:04:00.787Z,3.72
2023-03-05T03:06:29.263Z,3.72
2023-03-05T03:08:57.793Z,3.20
2023-03-05T03:11:26.360Z,2.55
2023-03-05T03:13:56.404Z,3.05
2023-03-05T03:16:24.914Z,3.45
2023-03-05T03:18:53.344Z,3.65
2023-03-05T03:21:22.819Z,4.05
2023-03-05T03:23:51.312Z,3.45
2023-03-05T03:26:20.074Z,3.72
2023-03-05T03:28:48.469Z,2.95
2023-03-05T03:31:18.688Z,3.78
2023-03-05T03:33:47.302Z,4.00
2023-03-05T03:36:18.870Z,3.92
2023-03-05T03:38:47.241Z,2.80
2023-03-05T03:41:15.613Z,3.00
2023-03-05T03:43:46.352Z,3.03
2023-03-05T03:46:14.797Z,2.72
2023-03-05T03:48:44.649Z,3.00
2023-03-05T03:51:13.163Z,3.35
2023-03-05T03:53:41.547Z,2.72
2023-03-05T03:56:10.012Z,3.78
2023-03-05T03:58:40.751Z,3.10
2023-03-05T04:01:09.681Z,6.50
2023-03-05T04:03:38.103Z,3.45
2023-03-05T04:06:09.434Z,3.22
2023-03-05T04:08:37.929Z,2.60
2023-03-05T04:11:06.615Z,2.97
2023-03-05T04:13:35.051Z,3.47
2023-03-05T04:16:03.592Z,2.95
2023-03-05T04:18:32.663Z,2.95
2023-03-05T04:21:01.349Z,2.95
2023-03-05T04:23:31.362Z,3.42
2023-03-05T04:25:59.885Z,2.88
2023-03-05T04:28:28.515Z,2.80
2023-03-05T04:30:57.013Z,3.05
2023-03-05T04:33:25.605Z,3.22
2023-03-05T04:35:54.319Z,3.10
2023-03-05T04:38:22.860Z,3.20
2023-03-05T04:40:52.754Z,3.38
2023-03-05T04:43:21.279Z,2.58
2023-03-05T04:45:49.932Z,3.30
2023-03-05T04:48:18.920Z,3.15
2023-03-05T04:50:47.380Z,3.13
2023-03-05T04:53:18.485Z,2.90
2023-03-05T04:55:47.027Z,2.95
2023-03-05T04:58:16.768Z,3.00
2023-03-05T05:00:45.255Z,3.10
2023-03-05T05:03:13.729Z,3.22
2023-03-05T05:05:42.498Z,3.25
2023-03-05T05:08:11.862Z,2.95
2023-03-05T05:10:41.404Z,3.47
2023-03-05T05:13:09.845Z,3.15
2023-03-05T05:15:41.974Z,2.70
2023-03-05T05:18:10.415Z,3.05
2023-03-05T05:20:40.226Z,3.08
2023-03-05T05:23:08.779Z,2.50
2023-03-05T05:25:37.195Z,3.00
2023-03-05T05:28:06.077Z,2.97
2023-03-05T05:30:34.551Z,3.55
2023-03-05T05:33:04.401Z,3.17
2023-03-05T05:35:33.100Z,3.03
2023-03-05T05:38:01.624Z,3.17
2023-03-05T05:40:30.142Z,2.80
2023-03-05T05:42:58.557Z,2.75
2023-03-05T05:45:27.115Z,2.92
2023-03-05T05:47:55.700Z,2.78
2023-03-05T05:50:30.331Z,3.20
2023-03-05T05:52:58.786Z,3.33
2023-03-05T05:55:27.314Z,3.10
2023-03-05T05:57:55.802Z,3.40
2023-03-05T06:00:24.611Z,4.10
2023-03-05T06:02:53.188Z,2.35
2023-03-05T06:05:21.799Z,3.25
2023-03-05T06:07:51.653Z,3.58
2023-03-05T06:10:20.547Z,3.00
2023-03-05T06:12:49.316Z,2.63
2023-03-05T06:15:18.913Z,3.22
2023-03-05T06:17:47.848Z,3.05
2023-03-05T06:20:16.391Z,3.08
2023-03-05T06:22:44.805Z,3.10
2023-03-05T06:25:14.623Z,3.63
2023-03-05T06:27:43.155Z,4.00
2023-03-05T06:30:12.347Z,3.97
2023-03-05T06:32:40.887Z,3.03
2023-03-05T06:35:11.941Z,3.58
2023-03-05T06:37:40.373Z,3.45
2023-03-05T06:40:09.755Z,3.30
2023-03-05T06:42:39.562Z,4.20
2023-03-05T06:45:11.470Z,3.33
2023-03-05T06:47:39.880Z,3.20
2023-03-05T06:50:08.801Z,3.00
2023-03-05T06:52:38.788Z,3.53
2023-03-05T06:55:07.457Z,3.92
2023-03-05T06:57:35.964Z,3.35
2023-03-05T07:00:09.319Z,3.75
2023-03-05T07:05:58.762Z,2.30
2023-03-05T07:08:27.269Z,3.45
2023-03-05T07:10:55.926Z,2.88
2023-03-05T07:13:24.505Z,2.78
2023-03-05T07:15:54.463Z,3.13
2023-03-05T07:18:23.426Z,2.72
2023-03-05T07:20:51.994Z,3.67
2023-03-05T07:23:20.646Z,3.88
2023-03-05T07:25:49.164Z,3.42
2023-03-05T07:28:17.743Z,3.10
2023-03-05T07:30:46.235Z,4.90
2023-03-05T07:33:16.205Z,3.83
2023-03-05T07:35:44.592Z,5.47
2023-03-05T07:38:13.103Z,3.53
2023-03-05T07:40:41.577Z,3.17
2023-03-05T07:43:10.226Z,4.82
2023-03-05T07:45:41.290Z,2.92
2023-03-05T07:48:10.061Z,3.92
2023-03-05T07:50:40.475Z,4.05
2023-03-05T07:53:09.191Z,3.80
2023-03-05T07:55:37.796Z,2.90
2023-03-05T07:58:06.376Z,3.38
2023-03-05T08:00:34.895Z,4.00
2023-03-05T08:03:03.424Z,2.72
2023-03-05T08:05:34.050Z,3.70
2023-03-05T08:08:03.960Z,2.70
2023-03-05T08:10:32.464Z,2.70
2023-03-05T08:13:01.002Z,3.00
2023-03-05T08:15:31.867Z,3.15
2023-03-05T08:18:00.527Z,3.05
2023-03-05T08:20:29.835Z,3.30
2023-03-05T08:22:58.376Z,2.63
2023-03-05T08:25:28.170Z,3.10
2023-03-05T08:27:56.970Z,3.03
2023-03-05T08:30:27.698Z,3.25
2023-03-05T08:32:57.373Z,2.80
2023-03-05T08:35:26.151Z,2.70
2023-03-05T08:38:00.130Z,2.38
2023-03-05T08:40:33.458Z,3.08
2023-03-05T08:43:02.098Z,3.03
2023-03-05T08:45:30.587Z,2.83
2023-03-05T08:47:59.497Z,2.80
2023-03-05T08:50:31.016Z,3.20
2023-03-05T08:53:00.160Z,2.20
2023-03-05T08:55:28.747Z,2.65
2023-03-05T08:57:59.745Z,1.75
2023-03-05T09:00:28.320Z,2.33
2023-03-05T09:02:56.877Z,2.72
2023-03-05T09:05:25.683Z,2.63
2023-03-05T09:07:54.297Z,2.40
2023-03-05T09:10:22.875Z,2.20
2023-03-05T09:12:51.408Z,2.00
2023-03-05T09:15:21.464Z,2.10
2023-03-05T09:17:50.369Z,1.67
2023-03-05T09:20:19.053Z,1.92
2023-03-05T09:22:47.641Z,2.08
2023-03-05T09:25:16.289Z,2.22
2023-03-05T09:27:45.410Z,1.98
2023-03-05T09:30:14.797Z,2.63
2023-03-05T09:32:46.560Z,1.90
2023-03-05T09:35:15.412Z,2.38
2023-03-05T09:37:43.841Z,2.25
2023-03-05T09:40:16.212Z,2.47
2023-03-05T09:42:56.235Z,1.70
2023-03-05T09:45:27.169Z,2.72
2023-03-05T09:47:59.942Z,2.15
2023-03-05T09:53:03.694Z,2.70
2023-03-05T09:55:36.101Z,3.30
2023-03-05T09:58:06.708Z,2.58
2023-03-05T10:00:38.026Z,2.67
2023-03-05T10:03:15.096Z,2.45
2023-03-05T10:05:57.961Z,2.17
2023-03-05T10:08:31.541Z,2.42
2023-03-05T10:11:01.791Z,2.03
2023-03-05T10:13:32.842Z,2.50
2023-03-05T10:16:08.139Z,2.60
2023-03-05T10:18:42.262Z,2.67
2023-03-05T10:21:16.139Z,3.45
2023-03-05T10:23:53.405Z,3.00
2023-03-05T10:26:43.098Z,2.72
2023-03-05T10:29:35.179Z,3.10
2023-03-05T10:32:09.884Z,2.70
2023-03-05T10:34:50.821Z,3.13
2023-03-05T10:37:45.580Z,2.25
2023-03-05T10:40:23.086Z,2.92
2023-03-05T10:42:55.984Z,3.33
2023-03-05T10:45:30.433Z,2.63
2023-03-05T10:48:01.708Z,3.55
2023-03-05T10:50:35.464Z,3.22
2023-03-05T10:53:16.084Z,3.08
2023-03-05T10:55:45.123Z,3.42
2023-03-05T10:58:14.715Z,3.88
2023-03-05T11:00:59.293Z,4.05
2023-03-05T11:03:28.040Z,3.72
2023-03-05T11:06:03.010Z,3.03
2023-03-05T11:08:33.768Z,2.60
2023-03-05T11:11:06.730Z,3.58
2023-03-05T11:13:35.659Z,3.33
2023-03-05T11:16:04.944Z,3.53
2023-03-05T11:18:34.774Z,3.13
2023-03-05T11:21:19.660Z,2.67
2023-03-05T11:24:05.064Z,3.08
2023-03-05T11:26:33.914Z,3.45
2023-03-05T11:29:04.895Z,3.55
2023-03-05T11:31:34.711Z,3.20
2023-03-05T11:34:04.746Z,4.38
2023-03-05T11:36:35.693Z,2.80
2023-03-05T11:39:14.225Z,7.40
2023-03-05T11:41:43.873Z,6.60
2023-03-05T11:44:13.829Z,6.57
2023-03-05T11:46:43.631Z,7.55
2023-03-05T11:49:15.669Z,6.38
2023-03-05T11:51:50.633Z,4.63
2023-03-05T11:54:23.231Z,6.20
2023-03-05T11:56:53.421Z,4.15
2023-03-05T11:59:24.181Z,3.65
2023-03-05T12:01:54.282Z,3.30
2023-03-05T12:04:23.304Z,4.45
2023-03-05T12:06:55.016Z,3.53
2023-03-05T12:09:26.445Z,5.00
2023-03-05T12:11:58.341Z,6.13
2023-03-05T12:14:28.923Z,4.07
2023-03-05T12:17:02.247Z,3.25
2023-03-05T12:19:35.697Z,5.30
2023-03-05T12:22:06.951Z,4.97
2023-03-05T12:24:39.845Z,4.53
2023-03-05T12:27:14.748Z,4.43
2023-03-05T12:29:47.385Z,4.88
2023-03-05T12:32:35.300Z,3.35
2023-03-05T12:35:05.126Z,4.78
2023-03-05T12:37:52.102Z,3.05
2023-03-05T12:40:25.874Z,3.58
2023-03-05T12:42:55.136Z,2.85
2023-03-05T12:45:28.013Z,3.35
2023-03-05T12:50:39.895Z,2.67
2023-03-05T12:53:12.138Z,4.07
2023-03-05T12:55:48.826Z,4.60
2023-03-05T12:58:19.295Z,4.18
2023-03-05T13:00:50.497Z,3.38
2023-03-05T13:03:24.353Z,4.03
2023-03-05T13:05:53.952Z,3.90
2023-03-05T13:08:23.391Z,3.45
2023-03-05T13:10:54.640Z,4.40
2023-03-05T13:13:23.442Z,3.28
2023-03-05T13:15:53.301Z,4.20
2023-03-05T13:18:22.357Z,5.10
2023-03-05T13:20:56.328Z,5.13
2023-03-05T13:23:26.354Z,5.70
2023-03-05T13:26:00.117Z,7.15
2023-03-05T13:28:29.038Z,4.78
2023-03-05T13:30:59.304Z,7.10
2023-03-05T13:33:29.320Z,6.88
2023-03-05T13:35:57.911Z,6.40
2023-03-05T13:38:28.294Z,3.65
2023-03-05T13:41:09.841Z,3.33
2023-03-05T13:43:44.612Z,3.30
2023-03-05T13:46:13.364Z,4.57
2023-03-05T13:48:44.299Z,5.35
2023-03-05T13:51:20.826Z,4.20
2023-03-05T13:53:49.335Z,5.45
2023-03-05T13:56:19.904Z,2.90
2023-03-05T13:58:50.761Z,2.90
2023-03-05T14:01:25.935Z,2.67
2023-03-05T14:03:57.296Z,3.67
2023-03-05T14:06:28.326Z,2.90
2023-03-05T14:09:04.231Z,2.63
2023-03-05T14:11:32.669Z,2.67
2023-03-05T14:14:05.737Z,3.10
2023-03-05T14:16:34.482Z,6.90
2023-03-05T14:19:04.799Z,5.50
2023-03-05T14:21:48.791Z,2.92
2023-03-05T14:24:22.741Z,5.80
2023-03-05T14:26:53.004Z,4.93
2023-03-05T14:29:23.643Z,6.28
2023-03-05T14:31:53.231Z,5.50
2023-03-05T14:34:23.658Z,3.85
2023-03-05T14:36:54.361Z,6.72
2023-03-05T14:39:28.584Z,6.72
2023-03-05T14:41:57.261Z,7.25
2023-03-05T14:44:26.613Z,5.65
2023-03-05T14:46:55.101Z,5.15
2023-03-05T14:49:23.748Z,5.60
2023-03-05T14:51:56.528Z,4.50
2023-03-05T14:56:53.892Z,3.70
2023-03-05T14:59:22.449Z,3.78
2023-03-05T15:01:51.334Z,3.75
2023-03-05T15:04:20.272Z,4.07
2023-03-05T15:06:50.971Z,3.78
2023-03-05T15:09:21.188Z,3.85
2023-03-05T15:11:50.067Z,4.15
2023-03-05T15:14:18.864Z,2.92
2023-03-05T15:16:48.747Z,4.00
2023-03-05T15:19:17.269Z,4.22
2023-03-05T15:21:46.070Z,3.20
2023-03-05T15:24:14.848Z,2.15
2023-03-05T15:26:44.716Z,2.58
2023-03-05T15:29:13.256Z,2.70
2023-03-05T15:31:42.256Z,3.97
2023-03-05T15:34:11.162Z,2.90
2023-03-05T15:36:39.666Z,3.33
2023-03-05T15:39:08.417Z,5.60
2023-03-05T15:41:36.838Z,4.45
2023-03-05T15:44:07.140Z,4.18
2023-03-05T15:46:36.540Z,2.70
2023-03-05T15:49:05.683Z,2.88
2023-03-05T15:51:34.289Z,2.90
2023-03-05T15:54:02.775Z,3.22
2023-03-05T15:56:31.201Z,3.17
2023-03-05T15:58:59.732Z,6.85
2023-03-05T16:01:30.120Z,3.90
2023-03-05T16:03:58.730Z,7.68
2023-03-05T16:06:28.053Z,5.38
2023-03-05T16:09:00.167Z,6.15
2023-03-05T16:11:29.077Z,6.25
2023-03-05T16:13:58.313Z,5.18
2023-03-05T16:16:27.014Z,3.80
2023-03-05T16:18:57.537Z,4.20
2023-03-05T16:21:26.205Z,3.90
2023-03-05T16:23:54.634Z,3.25
2023-03-05T16:26:23.056Z,3.70
2023-03-05T16:28:51.481Z,3.40
2023-03-05T16:31:20.113Z,3.15
2023-03-05T16:33:49.179Z,3.25
2023-03-05T16:36:26.757Z,3.83
2023-03-05T16:38:57.230Z,4.65
2023-03-05T16:41:26.396Z,4.47
2023-03-05T16:43:56.553Z,5.50
2023-03-05T16:46:28.219Z,4.75
2023-03-05T16:48:57.305Z,3.47
2023-03-05T16:51:28.027Z,6.50
2023-03-05T16:53:56.807Z,6.03
2023-03-05T16:56:25.345Z,5.05
2023-03-05T16:58:56.223Z,6.95
2023-03-05T17:01:30.208Z,6.03
2023-03-05T17:03:59.461Z,5.80
2023-03-05T17:06:30.065Z,7.57
2023-03-05T17:08:58.998Z,8.93
2023-03-05T17:11:27.440Z,7.78
2023-03-05T17:13:55.879Z,10.20
2023-03-05T17:16:24.857Z,9.05
2023-03-05T17:18:53.492Z,6.95
2023-03-05T17:21:21.888Z,7.40
2023-03-05T17:23:51.751Z,6.15
2023-03-05T17:26:21.310Z,5.20
2023-03-05T17:28:49.771Z,5.80
2023-03-05T17:31:18.718Z,4.93
2023-03-05T17:33:47.130Z,5.07
2023-03-05T17:36:16.028Z,5.80
2023-03-05T17:38:44.716Z,5.65
2023-03-05T17:41:14.493Z,7.03
2023-03-05T17:43:43.060Z,7.60
2023-03-05T17:46:11.769Z,7.53
2023-03-05T17:48:40.173Z,3.47
2023-03-05T17:51:08.707Z,5.82
2023-03-05T17:53:38.853Z,4.50
2023-03-05T17:56:08.227Z,3.95
2023-03-05T17:58:38.264Z,3.25
2023-03-05T18:01:07.306Z,4.20
2023-03-05T18:03:35.789Z,5.00
2023-03-05T18:06:05.027Z,9.18
2023-03-05T18:08:33.654Z,13.20
2023-03-05T18:11:02.074Z,7.00
2023-03-05T18:13:30.437Z,6.45
2023-03-05T18:16:02.481Z,5.50
2023-03-05T18:18:30.967Z,7.10
2023-03-05T18:20:59.510Z,7.25
2023-03-05T18:23:28.035Z,8.07
2023-03-05T18:25:56.503Z,6.05
2023-03-05T18:28:25.914Z,8.40
2023-03-05T18:30:54.516Z,8.63
2023-03-05T18:33:25.642Z,6.82
2023-03-05T18:35:54.300Z,6.88
2023-03-05T18:38:23.204Z,8.57
2023-03-05T18:40:52.183Z,8.05
2023-03-05T18:43:21.242Z,9.95
2023-03-05T18:45:50.167Z,8.57
2023-03-05T18:48:18.737Z,6.78
2023-03-05T18:50:50.673Z,6.15
2023-03-05T18:53:19.183Z,6.10
2023-03-05T18:55:51.599Z,6.88
2023-03-05T18:58:20.559Z,5.30
2023-03-05T19:00:51.957Z,5.53
2023-03-05T19:03:22.795Z,5.15
2023-03-05T19:05:53.172Z,5.05
2023-03-05T19:08:21.831Z,7.55
2023-03-05T19:10:50.328Z,5.82
2023-03-05T19:13:28.080Z,4.78
2023-03-05T19:15:56.999Z,5.53
2023-03-05T19:18:28.297Z,4.85
2023-03-05T19:20:58.538Z,6.22
2023-03-05T19:23:27.053Z,6.13
2023-03-05T19:25:56.048Z,5.50
2023-03-05T19:28:28.346Z,6.05
2023-03-05T19:33:31.538Z,5.82
2023-03-05T19:36:01.588Z,5.28
2023-03-05T19:38:30.045Z,4.35
2023-03-05T19:40:58.527Z,6.32
2023-03-05T19:43:27.344Z,6.65
2023-03-05T19:46:01.611Z,6.53
2023-03-05T19:48:31.514Z,6.00
2023-03-05T19:51:01.323Z,5.75
2023-03-05T19:53:29.849Z,5.97
2023-03-05T19:55:58.315Z,5.40
2023-03-05T19:58:27.155Z,5.38
2023-03-05T20:00:55.754Z,5.35
2023-03-05T20:03:24.145Z,4.35
2023-03-05T20:05:55.215Z,5.13
2023-03-05T20:08:25.011Z,4.60
2023-03-05T20:10:53.438Z,6.22
2023-03-05T20:13:22.010Z,5.82
2023-03-05T20:15:50.475Z,5.18
2023-03-05T20:18:18.933Z,4.70
2023-03-05T20:20:47.377Z,4.18
2023-03-05T20:23:15.784Z,4.82
2023-03-05T20:25:45.913Z,5.15
2023-03-05T20:28:25.570Z,5.63
2023-03-05T20:30:57.958Z,5.47
2023-03-05T20:33:27.551Z,5.43
2023-03-05T20:35:56.663Z,5.82
2023-03-05T20:38:26.029Z,4.72
2023-03-05T20:41:02.322Z,5.18
2023-03-05T20:43:33.327Z,5.85
2023-03-05T20:46:01.989Z,5.35
2023-03-05T20:48:31.349Z,5.60
2023-03-05T20:51:01.468Z,6.30
2023-03-05T20:53:29.839Z,6.53
2023-03-05T20:55:59.619Z,6.85
2023-03-05T20:58:27.945Z,6.90
2023-03-05T21:00:56.965Z,5.80
2023-03-05T21:03:26.505Z,6.38
2023-03-05T21:05:56.457Z,5.93
2023-03-05T21:08:25.616Z,6.40
2023-03-05T21:10:54.527Z,6.30
2023-03-05T21:13:25.058Z,6.13
2023-03-05T21:15:53.824Z,5.80
2023-03-05T21:18:22.222Z,6.63
2023-03-05T21:20:50.614Z,6.03
2023-03-05T21:23:21.294Z,5.38
2023-03-05T21:25:49.714Z,4.50
2023-03-05T21:28:18.709Z,5.68
2023-03-05T21:30:49.586Z,7.43
2023-03-05T21:33:19.623Z,9.13
2023-03-05T21:35:48.335Z,6.78
2023-03-05T21:38:16.826Z,6.85
2023-03-05T21:40:48.662Z,10.57
2023-03-05T21:43:18.492Z,7.97
2023-03-05T21:45:48.947Z,8.85
2023-03-05T21:48:17.708Z,8.32
2023-03-05T21:50:47.633Z,9.15
2023-03-05T21:53:16.661Z,9.02
2023-03-05T21:55:55.392Z,8.05
2023-03-05T21:58:24.881Z,8.90
2023-03-05T22:00:55.263Z,13.27
2023-03-05T22:03:23.832Z,8.80
2023-03-05T22:05:52.694Z,9.18
2023-03-05T22:08:21.484Z,10.27
2023-03-05T22:10:50.131Z,8.80
2023-03-05T22:13:23.656Z,9.85
2023-03-05T22:15:53.086Z,9.15
2023-03-05T22:18:26.834Z,9.80
2023-03-05T22:20:55.871Z,10.25
2023-03-05T22:23:25.765Z,12.88
2023-03-05T22:25:57.726Z,10.45
2023-03-05T22:28:26.153Z,11.43
2023-03-05T22:30:54.604Z,11.30
2023-03-05T22:33:24.522Z,10.27
2023-03-05T22:35:52.998Z,11.57
2023-03-05T22:38:21.531Z,12.18
2023-03-05T22:40:51.241Z,15.35
2023-03-05T22:43:20.035Z,14.02
2023-03-05T22:45:48.435Z,14.18
2023-03-05T22:48:17.159Z,15.00
2023-03-05T22:50:46.871Z,13.70
2023-03-05T22:53:17.958Z,13.00
2023-03-05T22:55:48.117Z,13.88
2023-03-05T22:58:16.508Z,11.60
2023-03-05T23:00:44.945Z,11.00
2023-03-05T23:03:13.354Z,9.68
2023-03-05T23:05:41.728Z,10.23
2023-03-05T23:08:11.545Z,10.63
2023-03-05T23:10:40.103Z,9.65
2023-03-05T23:13:10.619Z,9.23
2023-03-05T23:15:39.845Z,8.15
2023-03-05T23:18:09.004Z,9.88
2023-03-05T23:20:38.489Z,8.63
2023-03-05T23:23:06.932Z,8.98
2023-03-05T23:25:37.367Z,7.97
2023-03-05T23:28:05.982Z,8.45
2023-03-05T23:30:39.354Z,8.15
2023-03-05T23:33:09.364Z,7.50
2023-03-05T23:35:38.737Z,7.97
2023-03-05T23:38:08.771Z,7.93
2023-03-05T23:40:39.540Z,7.97
2023-03-05T23:43:08.022Z,7.65
2023-03-05T23:45:36.430Z,7.35
2023-03-05T23:48:04.839Z,7.85
2023-03-05T23:50:34.670Z,6.95
2023-03-05T23:53:03.515Z,8.32
2023-03-05T23:55:33.378Z,7.55
2023-03-05T23:58:03.186Z,7.85
